Time;durP1;ratioP1;P1;durP2;ratioP2;P2;SDS_P1;SDS_P2;PMS_P1;PMS_P2;Temp;Humidity;BMP_temperature;BMP_pressure;BME280_temperature;BME280_humidity;BME280_pressure;Samples;Min_cycle;Max_cycle;Signal;HPM_P1;HPM_P2
2023/06/24 00:00:46;;;;;;;3.42;2.97;;;;;;;18.22;63.60;102375.72;10234437;29;20122;-68
2023/06/24 00:05:49;;;;;;;3.58;2.53;;;;;;;18.16;65.75;102382.91;10219060;29;20039;-68
2023/06/24 00:10:49;;;;;;;2.90;2.47;;;;;;;18.15;66.11;102389.44;10250607;28;20094;-68
2023/06/24 00:15:50;;;;;;;5.18;2.53;;;;;;;18.14;67.62;102385.03;10235039;29;20530;-68
2023/06/24 00:20:51;;;;;;;5.35;3.38;;;;;;;18.17;69.92;102390.09;10251219;29;20442;-70
2023/06/24 00:25:53;;;;;;;3.60;2.58;;;;;;;18.16;68.78;102396.63;10255847;28;20031;-68
2023/06/24 00:30:53;;;;;;;4.15;3.40;;;;;;;18.16;70.80;102388.41;10220798;29;20039;-68
2023/06/24 00:35:56;;;;;;;2.20;2.10;;;;;;;18.19;70.36;102393.47;10238277;29;20098;-68
2023/06/24 00:40:56;;;;;;;2.35;2.15;;;;;;;18.13;72.43;102391.56;10254467;28;20038;-68
2023/06/24 00:45:57;;;;;;;3.00;2.58;;;;;;;18.06;75.66;102388.84;10251394;29;20038;-68
2023/06/24 00:50:58;;;;;;;2.75;2.22;;;;;;;18.08;71.59;102386.69;10252200;29;20047;-68
2023/06/24 00:56:02;;;;;;;4.85;2.55;;;;;;;18.03;72.41;102371.97;10253233;29;20041;-68
2023/06/24 01:01:03;;;;;;;5.32;3.00;;;;;;;18.03;71.93;102375.53;10237126;29;20061;-68
2023/06/24 01:06:03;;;;;;;3.35;3.10;;;;;;;18.04;74.79;102384.59;10250732;29;20177;-68
2023/06/24 01:11:03;;;;;;;2.00;1.90;;;;;;;18.02;75.52;102389.44;10253148;29;20422;-69
2023/06/24 01:16:06;;;;;;;3.45;3.15;;;;;;;18.03;75.90;102375.53;10237074;29;20111;-68
2023/06/24 01:21:21;;;;;;;3.15;2.85;;;;;;;17.99;75.49;102370.69;10253854;28;20023;-69
2023/06/24 01:26:51;;;;;;;5.47;3.08;;;;;;;17.93;75.45;102366.88;10258585;28;20023;-68
2023/06/24 01:32:06;;;;;;;13.25;4.15;;;;;;;17.91;76.11;102360.78;10258137;29;20035;-68
2023/06/24 01:37:40;;;;;;;5.10;3.65;;;;;;;17.91;76.93;102357.22;10256951;29;20370;-68
2023/06/24 01:42:42;;;;;;;5.53;3.35;;;;;;;17.86;76.17;102360.56;10244937;29;20066;-68
2023/06/24 01:47:44;;;;;;;4.70;2.92;;;;;;;17.82;74.94;102359.31;10255861;29;20059;-68
2023/06/24 01:52:44;;;;;;;5.43;3.00;;;;;;;17.69;73.85;102360.09;10255247;29;20035;-68
2023/06/24 01:57:45;;;;;;;5.47;2.85;;;;;;;17.63;74.24;102366.41;10239561;29;20042;-68
2023/06/24 02:02:45;;;;;;;2.40;2.20;;;;;;;17.51;73.65;102368.06;10255140;29;20042;-68
2023/06/24 02:07:47;;;;;;;3.88;3.40;;;;;;;17.48;74.32;102352.06;10255244;29;20046;-68
2023/06/24 02:12:49;;;;;;;5.03;4.50;;;;;;;17.48;75.60;102347.41;10223678;29;20103;-68
2023/06/24 02:17:50;;;;;;;4.35;2.63;;;;;;;17.48;76.08;102341.09;10239617;29;20352;-68
2023/06/24 02:22:51;;;;;;;2.42;2.28;;;;;;;17.48;75.77;102343.84;10238639;29;20058;-68
2023/06/24 02:27:52;;;;;;;4.13;3.30;;;;;;;17.42;75.98;102340.91;10253811;29;20400;-68
2023/06/24 02:32:52;;;;;;;6.55;3.25;;;;;;;17.45;78.74;102336.88;10237236;28;20113;-68
2023/06/24 02:37:53;;;;;;;7.78;3.40;;;;;;;17.43;81.23;102336.25;10255285;29;20051;-69
2023/06/24 02:42:53;;;;;;;5.65;4.68;;;;;;;17.36;81.33;102341.72;10256046;29;20174;-68
2023/06/24 02:47:54;;;;;;;6.25;3.45;;;;;;;17.31;81.50;102340.66;10255197;29;20043;-68
2023/06/24 02:52:55;;;;;;;6.68;4.53;;;;;;;17.27;81.54;102333.91;10254572;29;20059;-68
2023/06/24 02:57:57;;;;;;;5.03;4.05;;;;;;;17.29;83.06;102338.13;10222761;29;20039;-68
2023/06/24 03:02:58;;;;;;;7.60;4.00;;;;;;;17.33;82.78;102333.09;10254861;28;20039;-69
2023/06/24 03:07:58;;;;;;;6.07;4.07;;;;;;;17.31;83.05;102336.03;10252525;29;20043;-68
2023/06/24 03:12:58;;;;;;;4.25;3.88;;;;;;;17.30;83.81;102319.81;10252319;29;20031;-68
2023/06/24 03:17:59;;;;;;;5.95;4.65;;;;;;;17.29;84.00;102332.63;10253987;29;20039;-69
2023/06/24 03:22:59;;;;;;;6.85;3.88;;;;;;;17.26;84.89;102337.69;10254251;28;20035;-68
2023/06/24 03:28:09;;;;;;;4.72;4.07;;;;;;;17.26;84.66;102335.81;10253420;29;20067;-68
2023/06/24 03:33:09;;;;;;;5.25;4.50;;;;;;;17.26;85.54;102333.09;10237972;29;20035;-68
2023/06/24 03:38:11;;;;;;;4.63;3.45;;;;;;;17.25;87.54;102334.09;10253354;29;20070;-68
2023/06/24 03:43:11;;;;;;;6.85;4.15;;;;;;;17.27;88.24;102329.28;10252027;28;20134;-68
2023/06/24 03:48:12;;;;;;;6.75;4.30;;;;;;;17.28;87.56;102328.22;10252071;29;20182;-68
2023/06/24 03:53:12;;;;;;;5.40;4.45;;;;;;;17.30;90.13;102344.47;10252280;29;20082;-68
2023/06/24 03:58:13;;;;;;;4.43;3.88;;;;;;;17.38;89.43;102352.47;10252553;28;20461;-68
2023/06/24 04:03:14;;;;;;;5.45;4.90;;;;;;;17.38;88.27;102345.09;10252552;28;20051;-68
2023/06/24 04:08:14;;;;;;;5.43;4.45;;;;;;;17.39;88.21;102344.06;10251708;29;20051;-68
2023/06/24 04:13:14;;;;;;;7.00;4.47;;;;;;;17.41;89.56;102341.09;10251256;29;20110;-68
2023/06/24 04:18:15;;;;;;;19.05;5.15;;;;;;;17.47;90.38;102351.22;10251276;29;20051;-68
2023/06/24 04:23:15;;;;;;;5.35;4.43;;;;;;;17.53;91.38;102344.06;10253899;28;20115;-68
2023/06/24 04:28:16;;;;;;;6.18;5.18;;;;;;;17.62;91.89;102346.41;10251404;29;20039;-68
2023/06/24 04:33:16;;;;;;;6.28;4.65;;;;;;;17.70;91.81;102355.47;10249601;29;20039;-68
2023/06/24 04:38:18;;;;;;;8.20;4.32;;;;;;;17.94;92.01;102354.88;10250110;29;20098;-68
2023/06/24 04:43:18;;;;;;;5.53;4.90;;;;;;;19.14;91.68;102362.81;10249392;29;20042;-68
2023/06/24 04:48:19;;;;;;;14.52;6.28;;;;;;;20.05;88.28;102364.34;10249050;29;20054;-68
2023/06/24 04:53:19;;;;;;;5.60;5.07;;;;;;;20.55;90.04;102365.16;10250053;29;20042;-68
2023/06/24 04:58:19;;;;;;;6.05;5.43;;;;;;;21.03;87.44;102363.53;10250529;29;20047;-68
2023/06/24 05:03:20;;;;;;;10.65;5.63;;;;;;;21.48;85.36;102365.91;10249089;29;20061;-69
2023/06/24 05:08:20;;;;;;;8.98;5.10;;;;;;;21.79;84.08;102370.25;10250680;29;20039;-68
2023/06/24 05:13:21;;;;;;;5.45;4.95;;;;;;;22.19;82.60;102367.72;10249857;29;20463;-69
2023/06/24 05:18:21;;;;;;;8.07;5.28;;;;;;;22.62;81.24;102363.72;10249776;28;20122;-69
2023/06/24 05:23:21;;;;;;;8.93;5.63;;;;;;;22.78;79.94;102361.28;10250466;29;20038;-69
2023/06/24 05:28:22;;;;;;;7.00;5.32;;;;;;;23.15;78.93;102364.56;10250404;29;20051;-69
2023/06/24 05:33:22;;;;;;;6.55;5.13;;;;;;;23.41;77.34;102371.41;10250201;29;20062;-69
2023/06/24 05:38:22;;;;;;;6.03;5.30;;;;;;;23.62;75.49;102379.00;10248425;29;20051;-68
2023/06/24 05:43:23;;;;;;;12.27;5.72;;;;;;;23.43;75.57;102391.38;10249458;28;20114;-68
2023/06/24 05:48:23;;;;;;;8.65;5.40;;;;;;;24.00;74.50;102391.31;10248687;29;20062;-68
2023/06/24 05:53:24;;;;;;;5.53;5.03;;;;;;;24.66;72.71;102394.25;10249507;28;20078;-69
2023/06/24 05:58:25;;;;;;;7.93;5.00;;;;;;;24.80;71.67;102395.56;10247358;29;20458;-69
2023/06/24 06:03:25;;;;;;;8.60;6.15;;;;;;;25.17;70.66;102400.47;10231677;29;20530;-68
2023/06/24 06:08:25;;;;;;;7.05;6.25;;;;;;;25.44;68.20;102399.66;10251091;28;20062;-68
2023/06/24 06:13:26;;;;;;;9.77;6.10;;;;;;;25.63;67.81;102398.19;10255976;28;20039;-68
2023/06/24 06:18:26;;;;;;;8.25;5.07;;;;;;;26.19;66.45;102395.06;10181543;28;20058;-69
2023/06/24 06:23:27;;;;;;;8.32;6.40;;;;;;;26.40;64.10;102385.78;10254503;29;20039;-70
2023/06/24 06:28:27;;;;;;;6.35;5.60;;;;;;;25.60;64.50;102381.25;10255171;29;20047;-70
2023/06/24 06:33:28;;;;;;;6.95;6.15;;;;;;;26.31;62.14;102386.56;10255565;29;20376;-70
2023/06/24 06:38:28;;;;;;;7.15;6.45;;;;;;;26.85;60.80;102383.56;10255551;29;20052;-70
2023/06/24 06:43:28;;;;;;;8.52;6.18;;;;;;;27.09;61.03;102381.13;10254628;29;20039;-70
2023/06/24 06:48:29;;;;;;;7.47;6.65;;;;;;;27.53;60.30;102389.06;10254538;29;20144;-69
2023/06/24 06:53:29;;;;;;;8.38;6.35;;;;;;;27.84;58.51;102392.72;10253141;29;20035;-70
2023/06/24 06:58:30;;;;;;;8.90;7.13;;;;;;;27.75;58.50;102397.97;10253443;29;20046;-70
2023/06/24 07:03:30;;;;;;;7.53;6.88;;;;;;;28.11;58.48;102400.81;10253192;29;20579;-70
2023/06/24 07:08:30;;;;;;;6.82;6.00;;;;;;;28.48;57.02;102408.03;10253651;29;20043;-69
2023/06/24 07:13:31;;;;;;;8.35;7.32;;;;;;;28.95;55.90;102396.44;10253969;29;20027;-70
2023/06/24 07:18:31;;;;;;;8.27;7.32;;;;;;;29.30;55.51;102405.78;10254077;28;20166;-70
2023/06/24 07:23:32;;;;;;;7.72;6.97;;;;;;;29.59;55.61;102397.47;10250845;29;20035;-69
2023/06/24 07:28:32;;;;;;;7.25;5.53;;;;;;;30.05;54.84;102390.72;10250894;29;20122;-70
2023/06/24 07:33:33;;;;;;;12.82;6.65;;;;;;;29.94;53.55;102394.75;10234863;29;20138;-70
2023/06/24 07:38:33;;;;;;;7.18;6.43;;;;;;;30.12;52.25;102392.06;10251393;28;20082;-70
2023/06/24 07:43:33;;;;;;;12.68;5.75;;;;;;;30.57;52.64;102397.50;10250341;29;20039;-70
2023/06/24 07:48:34;;;;;;;8.10;6.30;;;;;;;30.80;51.15;102396.66;10251499;29;20043;-69
2023/06/24 07:53:34;;;;;;;42.00;11.82;;;;;;;30.97;50.00;102398.13;10252367;29;20083;-70
2023/06/24 07:58:36;;;;;;;6.32;5.80;;;;;;;31.31;50.72;102411.94;10252741;29;20042;-69
2023/06/24 08:03:37;;;;;;;7.18;6.43;;;;;;;31.33;48.38;102394.84;10252188;28;20134;-70
2023/06/24 08:08:37;;;;;;;7.10;5.78;;;;;;;31.53;47.34;102399.34;10251354;29;20035;-69
2023/06/24 08:13:38;;;;;;;8.65;6.18;;;;;;;30.55;47.56;102399.75;10251841;29;20027;-69
2023/06/24 08:18:39;;;;;;;12.15;6.35;;;;;;;31.43;49.01;102395.56;10250112;29;20027;-69
2023/06/24 08:23:40;;;;;;;7.43;5.78;;;;;;;32.29;48.46;102395.25;10250581;28;20114;-69
2023/06/24 08:28:41;;;;;;;9.60;7.30;;;;;;;32.71;47.84;102392.50;10250998;28;20073;-70
2023/06/24 08:33:44;;;;;;;7.70;6.57;;;;;;;32.86;47.27;102394.97;10249326;28;20129;-69
2023/06/24 08:38:44;;;;;;;13.40;7.32;;;;;;;32.93;45.76;102388.94;10250436;28;20051;-69
2023/06/24 08:43:45;;;;;;;11.65;7.70;;;;;;;33.24;45.04;102389.94;10249294;29;20118;-70
2023/06/24 08:48:45;;;;;;;6.82;6.03;;;;;;;33.18;45.96;102385.59;10247962;29;20103;-69
2023/06/24 08:53:46;;;;;;;9.27;6.15;;;;;;;32.95;41.67;102384.69;10247530;29;20114;-69
2023/06/24 08:58:46;;;;;;;6.70;6.05;;;;;;;31.84;45.29;102388.44;10216140;29;20383;-69
2023/06/24 09:03:46;;;;;;;8.00;5.93;;;;;;;32.99;45.17;102382.91;10247801;29;20059;-69
2023/06/24 09:08:56;;;;;;;10.98;6.70;;;;;;;33.42;43.35;102374.09;10249552;29;20043;-69
2023/06/24 09:13:57;;;;;;;6.22;5.72;;;;;;;33.47;42.03;102382.41;10232402;29;20106;-69
2023/06/24 09:18:58;;;;;;;11.38;7.15;;;;;;;33.78;43.62;102384.47;10248021;29;20043;-66
2023/06/24 09:23:58;;;;;;;7.05;5.70;;;;;;;33.45;40.56;102381.88;10263997;28;20058;-67
2023/06/24 09:28:59;;;;;;;5.10;4.70;;;;;;;33.48;43.91;102378.44;10248041;29;20082;-67
2023/06/24 09:33:59;;;;;;;5.78;5.30;;;;;;;34.21;42.97;102376.34;10247748;29;20046;-67
2023/06/24 09:39:05;;;;;;;7.55;5.80;;;;;;;34.70;43.13;102374.38;10249061;29;20082;-67
2023/06/24 09:44:10;;;;;;;6.10;5.53;;;;;;;34.77;43.22;102370.28;10237785;29;20031;-67
2023/06/24 09:49:11;;;;;;;10.57;5.65;;;;;;;34.20;42.33;102377.47;10255382;29;20390;-67
2023/06/24 09:54:12;;;;;;;6.70;6.10;;;;;;;33.75;41.97;102379.47;10256625;28;20043;-67
2023/06/24 09:59:13;;;;;;;4.55;4.13;;;;;;;33.99;41.50;102379.97;10254138;29;20038;-67
2023/06/24 10:04:18;;;;;;;9.50;5.63;;;;;;;34.58;41.46;102373.34;10254831;29;20039;-67
2023/06/24 10:09:19;;;;;;;7.82;4.90;;;;;;;33.55;43.65;102366.78;10255337;29;20035;-67
2023/06/24 10:14:19;;;;;;;5.45;4.95;;;;;;;34.13;41.17;102370.66;10254487;29;20035;-68
2023/06/24 10:19:23;;;;;;;5.40;4.90;;;;;;;32.40;43.12;102362.25;10255368;29;20039;-68
2023/06/24 10:24:32;;;;;;;6.60;5.28;;;;;;;33.18;42.78;102363.13;10255200;28;20031;-68
2023/06/24 10:29:33;;;;;;;7.05;4.70;;;;;;;34.06;42.02;102353.44;10254474;28;20520;-68
2023/06/24 10:34:39;;;;;;;9.30;5.63;;;;;;;34.65;40.93;102354.00;10254641;28;20120;-68
2023/06/24 10:39:54;;;;;;;5.35;4.85;;;;;;;34.51;38.88;102347.66;10238749;29;20059;-69
2023/06/24 10:44:55;;;;;;;10.30;4.63;;;;;;;34.69;39.86;102343.78;10269171;28;20551;-68
2023/06/24 10:49:56;;;;;;;3.35;3.15;;;;;;;34.97;39.40;102347.13;10254138;28;20046;-67
2023/06/24 10:54:57;;;;;;;13.45;4.60;;;;;;;35.21;38.14;102346.69;10253301;28;20057;-68
2023/06/24 10:59:57;;;;;;;3.80;3.50;;;;;;;35.02;37.71;102338.53;10251973;29;20117;-69
2023/06/24 11:04:59;;;;;;;16.92;4.25;;;;;;;34.87;38.00;102328.56;10253180;29;20035;-69
2023/06/24 11:10:05;;;;;;;7.63;4.30;;;;;;;34.77;37.81;102326.06;10251834;29;20070;-69
2023/06/24 11:15:06;;;;;;;6.05;4.82;;;;;;;35.16;37.13;102333.59;10251308;29;20085;-69
2023/06/24 11:20:08;;;;;;;3.83;3.50;;;;;;;35.12;35.67;102329.78;10251785;29;20126;-69
2023/06/24 11:25:15;;;;;;;9.40;4.20;;;;;;;35.22;37.89;102328.63;10251803;29;20091;-70
2023/06/24 11:30:16;;;;;;;5.35;4.95;;;;;;;35.00;36.92;102326.75;10253194;28;20039;-69
2023/06/24 11:35:16;;;;;;;4.25;3.92;;;;;;;35.09;36.85;102322.00;10252476;28;20071;-69
2023/06/24 11:40:19;;;;;;;7.72;3.92;;;;;;;35.24;38.10;102323.50;10250534;29;20066;-69
2023/06/24 11:45:20;;;;;;;4.85;4.28;;;;;;;35.73;36.98;102315.66;10251237;29;20106;-69
2023/06/24 11:50:25;;;;;;;4.53;4.13;;;;;;;35.38;35.97;102304.41;10251843;28;20041;-69
2023/06/24 11:55:26;;;;;;;3.85;3.55;;;;;;;35.23;36.82;102302.13;10250288;29;20483;-69
2023/06/24 12:00:27;;;;;;;6.97;5.25;;;;;;;35.51;37.25;102304.56;10234812;29;20098;-69
2023/06/24 12:05:31;;;;;;;6.90;5.05;;;;;;;35.53;37.58;102302.28;10251394;28;20098;-68
2023/06/24 12:10:33;;;;;;;9.35;5.35;;;;;;;35.77;37.54;102293.25;10219757;29;20031;-69
2023/06/24 12:15:33;;;;;;;5.97;5.25;;;;;;;35.49;37.48;102287.19;10252363;28;20074;-68
2023/06/24 12:20:37;;;;;;;4.80;4.40;;;;;;;35.38;37.93;102290.31;10251798;29;20471;-69
2023/06/24 12:25:37;;;;;;;6.93;6.22;;;;;;;35.69;37.39;102291.31;10235060;29;20282;-68
2023/06/24 12:30:37;;;;;;;5.68;5.18;;;;;;;35.56;37.37;102287.53;10267086;28;20059;-70
2023/06/24 12:35:38;;;;;;;5.72;5.18;;;;;;;35.47;37.11;102284.69;10250206;29;20107;-71
2023/06/24 12:40:39;;;;;;;5.10;4.68;;;;;;;35.41;37.52;102278.38;10249764;29;20047;-71
2023/06/24 12:45:40;;;;;;;7.43;4.68;;;;;;;35.21;36.88;102286.72;10250729;28;20035;-70
2023/06/24 12:50:40;;;;;;;4.93;4.53;;;;;;;35.20;36.77;102274.63;10249555;29;20042;-69
2023/06/24 12:55:41;;;;;;;5.50;5.00;;;;;;;35.61;36.88;102278.88;10233709;29;20489;-69
2023/06/24 13:00:41;;;;;;;7.45;4.93;;;;;;;35.50;36.42;102283.19;10249872;28;20031;-70
2023/06/24 13:05:42;;;;;;;8.80;5.73;;;;;;;35.60;36.80;102269.59;10250466;29;20046;-70
2023/06/24 13:10:42;;;;;;;11.53;6.07;;;;;;;35.12;37.50;102279.09;10247918;29;20605;-70
2023/06/24 13:15:42;;;;;;;9.15;6.63;;;;;;;34.78;38.29;102274.28;10249107;28;20340;-69
2023/06/24 13:20:43;;;;;;;7.32;6.57;;;;;;;34.65;38.05;102276.09;10256649;29;20117;-69
2023/06/24 13:25:44;;;;;;;5.78;5.28;;;;;;;34.31;38.54;102276.78;10239725;29;20467;-69
2023/06/24 13:30:44;;;;;;;8.75;7.95;;;;;;;34.09;40.12;102274.91;10257763;29;20057;-69
2023/06/24 13:35:44;;;;;;;7.25;6.55;;;;;;;33.93;39.47;102271.66;10257244;29;20625;-68
2023/06/24 13:40:45;;;;;;;10.30;6.05;;;;;;;34.00;40.12;102260.75;10253991;29;20146;-68
2023/06/24 13:45:45;;;;;;;11.55;8.32;;;;;;;33.92;40.99;102272.81;10254187;29;20110;-69
2023/06/24 13:50:46;;;;;;;7.03;6.35;;;;;;;33.74;40.90;102262.63;10237878;29;20495;-69
2023/06/24 13:55:46;;;;;;;8.38;7.07;;;;;;;33.56;41.05;102262.53;10253711;29;20138;-69
2023/06/24 14:00:46;;;;;;;8.40;7.57;;;;;;;33.62;40.90;102271.66;10255227;29;20038;-72
2023/06/24 14:05:47;;;;;;;10.73;6.93;;;;;;;33.24;41.94;102254.34;10254414;28;20363;-71
2023/06/24 14:10:47;;;;;;;9.02;8.10;;;;;;;33.11;41.44;102251.28;10254121;29;20114;-70
2023/06/24 14:15:48;;;;;;;14.33;8.33;;;;;;;32.94;41.09;102255.91;10269152;28;20402;-70
2023/06/24 14:20:49;;;;;;;13.40;7.88;;;;;;;32.76;41.45;102260.53;10254977;28;20277;-69
2023/06/24 14:25:49;;;;;;;9.18;8.25;;;;;;;32.50;42.09;102252.69;10253844;29;20043;-68
2023/06/24 14:30:49;;;;;;;7.97;7.20;;;;;;;32.35;42.14;102241.78;10253714;28;20027;-69
2023/06/24 14:35:51;;;;;;;9.20;8.30;;;;;;;32.10;42.28;102238.38;10270581;28;20415;-72
2023/06/24 14:40:51;;;;;;;10.48;8.55;;;;;;;31.85;43.14;102238.88;10256578;28;20300;-69
2023/06/24 14:45:52;;;;;;;9.07;8.27;;;;;;;31.65;43.17;102243.72;10255915;28;20095;-70
2023/06/24 14:50:52;;;;;;;11.38;10.30;;;;;;;31.51;43.38;102237.25;10252705;29;20038;-70
2023/06/24 14:55:52;;;;;;;10.73;8.32;;;;;;;31.17;43.16;102232.75;10252719;29;20050;-69
2023/06/24 15:00:53;;;;;;;11.95;9.77;;;;;;;30.80;44.26;102233.63;10237148;29;20114;-70
2023/06/24 15:05:53;;;;;;;14.60;10.27;;;;;;;30.47;44.92;102236.31;10220623;29;20122;-69
2023/06/24 15:10:53;;;;;;;11.63;10.25;;;;;;;30.54;44.94;102231.16;10237742;29;20031;-69
2023/06/24 15:15:56;;;;;;;8.27;7.47;;;;;;;30.42;45.33;102243.91;10253818;29;20043;-69
2023/06/24 15:20:56;;;;;;;10.13;9.10;;;;;;;30.32;45.40;102230.91;10253217;28;20273;-70
2023/06/24 15:25:56;;;;;;;8.95;7.85;;;;;;;29.97;45.45;102238.56;10252835;29;20331;-70
2023/06/24 15:30:57;;;;;;;8.10;7.45;;;;;;;29.96;45.31;102230.47;10252462;29;20121;-70
2023/06/24 15:35:59;;;;;;;12.90;8.88;;;;;;;29.99;45.29;102229.88;10251836;29;20087;-70
2023/06/24 15:40:59;;;;;;;11.80;7.90;;;;;;;29.74;45.11;102223.47;10234525;28;20043;-69
2023/06/24 15:46:00;;;;;;;6.15;5.57;;;;;;;29.49;45.14;102226.47;10252794;29;20039;-70
2023/06/24 15:51:00;;;;;;;6.85;6.15;;;;;;;29.43;44.68;102215.34;10251960;29;20414;-70
2023/06/24 15:56:01;;;;;;;6.10;5.55;;;;;;;29.33;44.97;102221.03;10251338;29;20102;-70
2023/06/24 16:01:01;;;;;;;5.82;5.20;;;;;;;28.94;45.47;102198.69;10251790;28;20089;-70
2023/06/24 16:06:02;;;;;;;7.10;6.40;;;;;;;28.87;45.80;102207.41;10249841;29;20095;-69
2023/06/24 16:11:04;;;;;;;5.80;5.38;;;;;;;28.65;45.76;102202.25;10251972;28;20094;-69
2023/06/24 16:16:05;;;;;;;5.82;5.32;;;;;;;28.46;46.08;102187.31;10252276;28;20035;-69
2023/06/24 16:21:05;;;;;;;5.93;4.82;;;;;;;28.35;46.13;102196.84;10250818;28;20030;-71
2023/06/24 16:26:06;;;;;;;6.20;5.63;;;;;;;28.00;46.23;102193.09;10248917;29;20047;-69
2023/06/24 16:31:06;;;;;;;5.72;5.22;;;;;;;27.27;45.94;102183.19;10234074;29;20480;-69
2023/06/24 16:36:06;;;;;;;9.02;6.25;;;;;;;26.75;45.98;102177.88;10249612;29;20383;-69
2023/06/24 16:41:07;;;;;;;6.80;5.68;;;;;;;26.43;45.99;102176.91;10232973;29;20035;-69
2023/06/24 16:46:07;;;;;;;7.60;4.82;;;;;;;26.17;46.71;102176.00;10233232;29;20043;-70
2023/06/24 16:51:08;;;;;;;8.88;5.18;;;;;;;25.98;46.21;102163.72;10264256;28;20035;-69
2023/06/24 16:56:08;;;;;;;4.20;3.80;;;;;;;25.83;46.22;102166.41;10249746;29;20035;-69
2023/06/24 17:01:08;;;;;;;9.02;4.93;;;;;;;25.67;46.09;102154.34;10249525;29;20402;-69
2023/06/24 17:06:09;;;;;;;4.53;3.95;;;;;;;25.52;46.09;102155.09;10249900;29;20066;-69
2023/06/24 17:11:10;;;;;;;5.40;4.90;;;;;;;25.46;45.75;102157.03;10232416;29;20050;-69
2023/06/24 17:16:10;;;;;;;4.75;4.30;;;;;;;25.39;45.82;102159.16;10249271;29;20078;-69
2023/06/24 17:21:10;;;;;;;4.68;4.20;;;;;;;25.34;45.83;102152.78;10249412;29;20502;-69
2023/06/24 17:26:11;;;;;;;4.70;4.13;;;;;;;25.35;45.62;102157.22;10249440;29;20035;-69
2023/06/24 17:31:11;;;;;;;4.80;4.40;;;;;;;25.35;45.30;102151.66;10249458;29;20043;-69
2023/06/24 17:36:12;;;;;;;3.65;3.35;;;;;;;25.28;44.92;102152.72;10249254;29;20475;-69
2023/06/24 17:41:12;;;;;;;5.35;3.75;;;;;;;25.25;44.93;102147.72;10251058;29;20174;-70
2023/06/24 17:46:12;;;;;;;5.20;4.80;;;;;;;25.05;45.17;102139.22;10248069;29;20070;-69
2023/06/24 17:51:13;;;;;;;3.35;3.10;;;;;;;25.11;45.19;102137.28;10232519;29;20058;-69
2023/06/24 17:56:13;;;;;;;3.85;3.47;;;;;;;24.99;45.71;102138.34;10232497;29;20114;-69
2023/06/24 18:01:15;;;;;;;7.03;3.88;;;;;;;24.76;45.48;102135.88;10250681;28;20042;-69
2023/06/24 18:06:15;;;;;;;8.73;5.68;;;;;;;24.70;45.25;102123.94;10257675;28;20039;-69
2023/06/24 18:11:16;;;;;;;6.53;4.68;;;;;;;24.73;45.27;102128.97;10257183;29;20047;-69
2023/06/24 18:16:16;;;;;;;5.60;4.15;;;;;;;24.58;45.76;102120.50;10272521;28;20035;-70
2023/06/24 18:21:17;;;;;;;11.50;5.05;;;;;;;24.51;46.17;102111.59;10257726;28;20111;-69
2023/06/24 18:26:17;;;;;;;4.65;4.18;;;;;;;24.46;46.21;102105.97;10238845;29;20050;-69
2023/06/24 18:31:18;;;;;;;7.95;4.53;;;;;;;24.34;46.43;102120.78;10254194;29;20414;-69
2023/06/24 18:36:19;;;;;;;5.35;4.82;;;;;;;24.27;46.33;102117.38;10255772;28;20039;-68
2023/06/24 18:41:19;;;;;;;5.82;4.28;;;;;;;24.09;48.94;102113.03;10253974;29;20090;-69
2023/06/24 18:46:20;;;;;;;6.40;4.60;;;;;;;23.92;48.41;102109.50;10255457;29;20543;-69
2023/06/24 18:51:20;;;;;;;3.88;3.28;;;;;;;23.72;51.57;102123.91;10254359;29;20378;-69
2023/06/24 18:56:21;;;;;;;6.10;3.78;;;;;;;23.62;50.31;102119.03;10254875;28;20035;-69
2023/06/24 19:01:21;;;;;;;5.72;3.92;;;;;;;23.41;51.13;102115.13;10254677;29;20066;-68
2023/06/24 19:06:22;;;;;;;5.13;4.53;;;;;;;22.99;57.40;102112.00;10255417;29;20031;-70
2023/06/24 19:11:22;;;;;;;4.53;3.50;;;;;;;22.59;62.33;102107.44;10255699;29;20526;-69
2023/06/24 19:16:23;;;;;;;4.60;4.00;;;;;;;22.43;63.08;102108.22;10253827;28;20047;-69
2023/06/24 19:21:23;;;;;;;5.45;4.95;;;;;;;22.31;62.50;102101.94;10252408;29;20054;-69
2023/06/24 19:26:24;;;;;;;3.90;3.60;;;;;;;22.17;64.01;102112.44;10253102;29;20046;-69
2023/06/24 19:31:24;;;;;;;4.32;3.38;;;;;;;21.94;70.49;102103.13;10252338;29;20463;-68
2023/06/24 19:36:25;;;;;;;4.30;3.90;;;;;;;21.85;63.87;102100.97;10252215;29;20055;-68
2023/06/24 19:41:25;;;;;;;5.97;5.18;;;;;;;21.74;63.49;102098.03;10252212;29;20381;-69
2023/06/24 19:46:25;;;;;;;5.60;4.18;;;;;;;21.61;63.03;102098.28;10252969;29;20451;-68
2023/06/24 19:51:28;;;;;;;4.05;3.75;;;;;;;21.62;60.58;102104.63;10250464;29;20059;-69
2023/06/24 19:56:28;;;;;;;6.45;5.15;;;;;;;21.60;59.43;102102.09;10252584;28;20066;-69
2023/06/24 20:01:28;;;;;;;8.40;3.85;;;;;;;21.55;59.44;102111.13;10252073;29;20032;-69
2023/06/24 20:06:29;;;;;;;7.07;4.05;;;;;;;21.47;59.18;102118.91;10252117;28;20043;-69
2023/06/24 20:11:29;;;;;;;14.68;4.97;;;;;;;21.35;59.17;102108.75;10251610;29;20039;-69
2023/06/24 20:16:30;;;;;;;12.90;4.75;;;;;;;21.19;59.76;102123.22;10251470;28;20047;-69
2023/06/24 20:21:30;;;;;;;6.78;4.32;;;;;;;21.16;59.50;102122.84;10234168;29;20078;-69
2023/06/24 20:26:31;;;;;;;9.27;4.47;;;;;;;21.10;59.11;102119.97;10250761;28;20198;-69
2023/06/24 20:31:31;;;;;;;14.73;6.22;;;;;;;21.02;59.03;102112.03;10253731;28;20118;-69
2023/06/24 20:36:32;;;;;;;6.00;5.40;;;;;;;20.95;59.12;102113.22;10251649;28;20423;-68
2023/06/24 20:41:32;;;;;;;11.60;6.88;;;;;;;20.89;59.04;102113.09;10250984;28;20094;-69
2023/06/24 20:46:33;;;;;;;9.48;6.60;;;;;;;20.84;59.26;102103.88;10250446;29;20367;-69
2023/06/24 20:51:33;;;;;;;9.10;8.20;;;;;;;20.77;59.80;102103.13;10250442;29;20163;-69
2023/06/24 20:56:34;;;;;;;6.75;6.15;;;;;;;20.73;60.74;102104.69;10250594;28;20039;-69
2023/06/24 21:01:34;;;;;;;8.32;7.03;;;;;;;20.58;64.27;102097.72;10250203;28;20127;-69
2023/06/24 21:06:35;;;;;;;9.43;6.97;;;;;;;20.46;65.66;102096.00;10249573;29;20039;-67
2023/06/24 21:11:35;;;;;;;7.55;6.55;;;;;;;20.37;64.32;102093.56;10250016;29;20111;-67
2023/06/24 21:16:35;;;;;;;10.48;7.63;;;;;;;20.34;65.23;102090.44;10249486;28;20067;-68
2023/06/24 21:21:36;;;;;;;15.57;9.15;;;;;;;20.30;66.55;102086.47;10250166;29;20050;-68
2023/06/24 21:26:36;;;;;;;18.95;10.35;;;;;;;20.27;66.45;102086.94;10250057;29;20404;-68
2023/06/24 21:31:37;;;;;;;17.75;11.52;;;;;;;20.18;66.38;102079.00;10247658;29;20070;-68
2023/06/24 21:36:37;;;;;;;12.52;9.70;;;;;;;20.10;68.30;102067.47;10249913;28;20058;-67
2023/06/24 21:41:37;;;;;;;18.67;9.05;;;;;;;20.03;67.88;102083.25;10224790;29;20039;-67
2023/06/24 21:46:38;;;;;;;12.57;9.35;;;;;;;19.91;67.65;102074.94;10255841;29;20063;-67
2023/06/24 21:51:39;;;;;;;10.57;9.35;;;;;;;19.82;68.22;102073.59;10255360;29;20522;-67
2023/06/24 21:56:40;;;;;;;8.23;7.40;;;;;;;19.73;68.79;102073.06;10255494;29;20046;-67
2023/06/24 22:01:41;;;;;;;10.18;7.40;;;;;;;19.64;69.13;102077.19;10256202;29;20035;-67
2023/06/24 22:06:42;;;;;;;12.80;9.95;;;;;;;19.59;70.14;102075.09;10256040;29;20106;-67
2023/06/24 22:11:42;;;;;;;13.00;11.60;;;;;;;19.46;72.01;102058.75;10256659;28;20053;-67
2023/06/24 22:16:43;;;;;;;12.05;10.73;;;;;;;19.34;72.03;102060.59;10256158;29;20042;-70
2023/06/24 22:21:44;;;;;;;10.45;8.18;;;;;;;19.21;72.14;102053.31;10254795;29;20059;-70
2023/06/24 22:26:44;;;;;;;13.57;7.53;;;;;;;19.11;73.88;102053.00;10256797;28;20046;-71
2023/06/24 22:31:45;;;;;;;11.30;8.65;;;;;;;19.08;73.84;102059.78;10257003;29;20474;-71
2023/06/24 22:36:45;;;;;;;21.23;9.52;;;;;;;18.95;73.89;102065.38;10255680;28;20131;-71
2023/06/24 22:41:46;;;;;;;11.20;9.88;;;;;;;18.92;74.24;102069.44;10256064;29;20039;-71
2023/06/24 22:46:46;;;;;;;21.00;12.13;;;;;;;18.91;74.84;102066.91;10253198;29;20051;-69
2023/06/24 22:51:46;;;;;;;12.90;10.35;;;;;;;18.85;75.43;102076.88;10252445;28;20035;-69
2023/06/24 22:56:47;;;;;;;19.42;10.95;;;;;;;18.78;76.75;102056.88;10255176;29;20039;-69